createdAt,value
2023-05-15T00:00:29.286Z,10.93
2023-05-15T00:02:57.388Z,10.55
2023-05-15T00:05:24.818Z,10.10
2023-05-15T00:07:52.147Z,11.25
2023-05-15T00:10:19.362Z,11.80
2023-05-15T00:12:46.464Z,11.60
2023-05-15T00:15:13.616Z,11.52
2023-05-15T00:17:40.970Z,11.75
2023-05-15T00:20:09.978Z,10.85
2023-05-15T00:22:37.181Z,9.70
2023-05-15T00:25:04.639Z,10.23
2023-05-15T00:27:31.769Z,11.07
2023-05-15T00:29:58.840Z,11.27
2023-05-15T00:32:26.054Z,11.73
2023-05-15T00:34:53.201Z,16.58
2023-05-15T00:37:20.321Z,15.63
2023-05-15T00:39:47.438Z,13.23
2023-05-15T00:42:14.528Z,15.35
2023-05-15T00:44:41.600Z,13.70
2023-05-15T00:47:08.841Z,13.23
2023-05-15T00:49:37.306Z,12.95
2023-05-15T00:52:05.558Z,14.75
2023-05-15T00:54:32.686Z,13.20
2023-05-15T00:56:59.947Z,14.38
2023-05-15T00:59:27.284Z,14.68
2023-05-15T01:01:54.524Z,14.35
2023-05-15T01:04:21.781Z,12.50
2023-05-15T01:06:49.031Z,12.10
2023-05-15T01:09:16.361Z,11.85
2023-05-15T01:11:43.471Z,12.52
2023-05-15T01:14:10.600Z,12.38
2023-05-15T01:16:38.831Z,13.27
2023-05-15T01:19:06.054Z,12.88
2023-05-15T01:21:33.209Z,14.07
2023-05-15T01:24:17.173Z,13.45
2023-05-15T01:27:03.010Z,14.45
2023-05-15T01:29:49.146Z,14.50
2023-05-15T01:32:19.541Z,13.38
2023-05-15T01:34:54.414Z,14.32
2023-05-15T01:37:22.943Z,13.80
2023-05-15T01:39:50.670Z,13.95
2023-05-15T01:42:17.981Z,17.25
2023-05-15T01:44:46.289Z,17.85
2023-05-15T01:47:14.690Z,17.45
2023-05-15T01:49:42.028Z,14.68
2023-05-15T01:52:10.745Z,14.30
2023-05-15T01:54:37.839Z,13.57
2023-05-15T01:57:05.081Z,13.25
2023-05-15T01:59:32.307Z,13.27
2023-05-15T02:01:59.436Z,14.18
2023-05-15T02:04:26.619Z,14.85
2023-05-15T02:06:54.313Z,15.07
2023-05-15T02:09:21.574Z,17.23
2023-05-15T02:11:48.750Z,16.35
2023-05-15T02:14:15.978Z,16.55
2023-05-15T02:16:43.184Z,16.83
2023-05-15T02:19:10.501Z,16.30
2023-05-15T02:21:37.676Z,15.70
2023-05-15T02:24:04.881Z,15.85
2023-05-15T02:26:35.021Z,14.70
2023-05-15T02:29:07.958Z,15.40
2023-05-15T02:31:50.518Z,15.10
2023-05-15T02:34:26.876Z,15.68
2023-05-15T02:36:54.043Z,13.98
2023-05-15T02:39:23.511Z,13.07
2023-05-15T02:41:52.270Z,13.68
2023-05-15T02:44:19.575Z,14.40
2023-05-15T02:46:46.771Z,16.23
2023-05-15T02:49:13.854Z,15.95
2023-05-15T02:51:41.080Z,18.33
2023-05-15T02:54:09.519Z,19.17
2023-05-15T02:56:36.883Z,18.52
2023-05-15T02:59:04.079Z,17.13
2023-05-15T03:01:31.342Z,16.10
2023-05-15T03:03:58.830Z,17.17
2023-05-15T03:06:26.008Z,18.00
2023-05-15T03:08:53.140Z,17.65
2023-05-15T03:11:21.317Z,18.13
2023-05-15T03:13:48.580Z,19.30
2023-05-15T03:16:15.920Z,19.77
2023-05-15T03:18:43.076Z,19.33
2023-05-15T03:21:10.585Z,19.30
2023-05-15T03:23:38.058Z,19.75
2023-05-15T03:26:05.413Z,18.77
2023-05-15T03:28:32.593Z,18.08
2023-05-15T03:30:59.746Z,18.35
2023-05-15T03:33:26.950Z,18.75
2023-05-15T03:35:54.087Z,18.98
2023-05-15T03:38:21.328Z,17.40
2023-05-15T03:40:50.879Z,17.88
2023-05-15T03:43:18.308Z,17.75
2023-05-15T03:45:45.654Z,19.25
2023-05-15T03:48:12.799Z,17.27
2023-05-15T03:50:40.352Z,16.08
2023-05-15T03:53:07.480Z,17.65
2023-05-15T03:55:34.565Z,18.77
2023-05-15T03:58:01.701Z,23.95
2023-05-15T04:00:28.840Z,24.50
2023-05-15T04:02:56.101Z,22.65
2023-05-15T04:05:23.527Z,23.05
2023-05-15T04:07:50.920Z,22.98
2023-05-15T04:10:18.104Z,23.92
2023-05-15T04:12:45.224Z,24.20
2023-05-15T04:15:21.410Z,25.80
2023-05-15T04:17:49.492Z,25.73
2023-05-15T04:20:17.416Z,28.10
2023-05-15T04:22:44.660Z,27.77
2023-05-15T04:25:12.175Z,26.20
2023-05-15T04:27:39.310Z,24.08
2023-05-15T04:30:06.743Z,22.02
2023-05-15T04:32:34.032Z,23.58
2023-05-15T04:35:01.662Z,23.38
2023-05-15T04:37:29.144Z,23.50
2023-05-15T04:39:56.300Z,24.13
2023-05-15T04:42:23.409Z,25.00
2023-05-15T04:44:51.060Z,25.50
2023-05-15T04:47:18.294Z,22.95
2023-05-15T04:49:45.578Z,24.27
2023-05-15T04:52:12.680Z,21.63
2023-05-15T04:54:39.825Z,20.75
2023-05-15T04:57:06.907Z,20.90
2023-05-15T04:59:34.172Z,21.50
2023-05-15T05:02:01.654Z,21.35
2023-05-15T05:04:29.000Z,19.70
2023-05-15T05:06:56.084Z,17.23
2023-05-15T05:09:23.273Z,17.70
2023-05-15T05:11:50.417Z,16.35
2023-05-15T05:14:17.591Z,14.07
2023-05-15T05:16:47.515Z,13.07
2023-05-15T05:19:14.699Z,12.10
2023-05-15T05:21:41.923Z,11.50
2023-05-15T05:24:09.121Z,11.70
2023-05-15T05:26:36.271Z,11.02
2023-05-15T05:29:03.373Z,10.73
2023-05-15T05:31:30.518Z,11.40
2023-05-15T05:33:57.616Z,10.55
2023-05-15T05:36:24.728Z,11.23
2023-05-15T05:38:51.998Z,11.57
2023-05-15T05:41:19.146Z,12.30
2023-05-15T05:43:46.244Z,10.90
2023-05-15T05:46:13.520Z,9.65
2023-05-15T05:48:40.667Z,9.10
2023-05-15T05:51:07.766Z,9.57
2023-05-15T05:53:34.918Z,9.00
2023-05-15T05:56:02.031Z,10.27
2023-05-15T05:58:29.152Z,10.43
2023-05-15T06:00:56.457Z,9.73
2023-05-15T06:03:24.114Z,9.63
2023-05-15T06:05:51.341Z,7.57
2023-05-15T06:08:18.659Z,9.50
2023-05-15T06:10:46.012Z,8.82
2023-05-15T06:13:14.818Z,10.80
2023-05-15T06:15:42.338Z,8.00
2023-05-15T06:18:09.491Z,5.47
2023-05-15T06:20:36.679Z,4.55
2023-05-15T06:23:03.909Z,3.30
2023-05-15T06:25:31.095Z,7.78
2023-05-15T06:27:58.208Z,7.97
2023-05-15T06:30:25.713Z,13.48
2023-05-15T06:32:53.779Z,14.25
2023-05-15T06:35:22.993Z,11.48
2023-05-15T06:37:51.872Z,8.35
2023-05-15T06:40:19.000Z,6.40
2023-05-15T06:42:47.180Z,5.10
2023-05-15T06:45:14.341Z,5.22
2023-05-15T06:47:41.464Z,4.88
2023-05-15T06:50:08.791Z,5.07
2023-05-15T06:52:35.927Z,5.53
2023-05-15T06:55:03.061Z,5.57
2023-05-15T06:57:30.167Z,5.70
2023-05-15T06:59:57.494Z,6.55
2023-05-15T07:02:24.846Z,5.75
2023-05-15T07:04:51.993Z,4.50
2023-05-15T07:07:19.141Z,4.30
2023-05-15T07:09:48.378Z,3.58
2023-05-15T07:12:15.726Z,2.88
2023-05-15T07:14:42.866Z,2.78
2023-05-15T07:17:09.990Z,2.80
2023-05-15T07:19:37.195Z,8.02
2023-05-15T07:22:04.403Z,2.78
2023-05-15T07:24:31.513Z,3.28
2023-05-15T07:26:59.531Z,6.93
2023-05-15T07:29:26.812Z,10.45
2023-05-15T07:31:54.112Z,9.93
2023-05-15T07:34:21.259Z,11.93
2023-05-15T07:36:48.434Z,6.30
2023-05-15T07:39:16.040Z,3.70
2023-05-15T07:41:46.983Z,3.22
2023-05-15T07:44:14.156Z,3.78
2023-05-15T07:46:41.446Z,3.40
2023-05-15T07:49:08.603Z,3.47
2023-05-15T07:51:35.817Z,3.45
2023-05-15T07:54:04.234Z,3.83
2023-05-15T07:56:31.722Z,3.75
2023-05-15T07:58:58.939Z,4.50
2023-05-15T08:01:26.096Z,3.65
2023-05-15T08:03:53.375Z,3.30
2023-05-15T08:06:20.590Z,3.47
2023-05-15T08:08:47.722Z,3.28
2023-05-15T08:11:14.844Z,3.80
2023-05-15T08:13:42.000Z,3.83
2023-05-15T08:16:09.213Z,3.38
2023-05-15T08:18:36.445Z,3.88
2023-05-15T08:21:04.779Z,3.55
2023-05-15T08:23:32.003Z,3.47
2023-05-15T08:25:59.359Z,5.25
2023-05-15T08:28:26.526Z,5.25
2023-05-15T08:30:53.667Z,3.90
2023-05-15T08:33:20.790Z,3.40
2023-05-15T08:35:47.981Z,3.42
2023-05-15T08:38:15.104Z,3.97
2023-05-15T08:40:42.543Z,3.72
2023-05-15T08:43:13.975Z,6.45
2023-05-15T08:45:41.501Z,5.43
2023-05-15T08:48:11.105Z,3.80
2023-05-15T08:50:39.837Z,3.72
2023-05-15T08:53:07.014Z,7.72
2023-05-15T08:55:34.130Z,8.32
2023-05-15T08:58:01.272Z,6.60
2023-05-15T09:00:28.382Z,7.63
2023-05-15T09:02:55.659Z,4.03
2023-05-15T09:05:22.919Z,5.45
2023-05-15T09:07:50.311Z,7.30
2023-05-15T09:10:17.499Z,4.70
2023-05-15T09:12:44.949Z,4.70
2023-05-15T09:15:13.103Z,5.40
2023-05-15T09:17:40.431Z,6.00
2023-05-15T09:20:08.552Z,4.00
2023-05-15T09:22:38.671Z,4.20
2023-05-15T09:25:06.347Z,4.70
2023-05-15T09:27:41.817Z,5.20
2023-05-15T09:30:09.636Z,5.10
2023-05-15T09:32:37.442Z,3.83
2023-05-15T09:35:04.824Z,3.78
2023-05-15T09:37:32.604Z,4.45
2023-05-15T09:40:11.945Z,8.48
2023-05-15T09:42:39.112Z,7.78
2023-05-15T09:45:06.715Z,11.65
2023-05-15T09:47:34.223Z,6.60
2023-05-15T09:50:01.612Z,7.13
2023-05-15T09:52:30.081Z,6.13
2023-05-15T09:54:57.993Z,9.73
2023-05-15T09:57:25.201Z,7.22
2023-05-15T09:59:52.378Z,4.35
2023-05-15T10:02:28.188Z,4.60
2023-05-15T10:04:56.825Z,5.32
2023-05-15T10:07:34.322Z,5.40
2023-05-15T10:10:02.453Z,4.57
2023-05-15T10:12:29.811Z,4.80
2023-05-15T10:14:58.390Z,5.32
2023-05-15T10:17:26.263Z,5.00
2023-05-15T10:19:58.261Z,3.47
2023-05-15T10:22:25.978Z,4.78
2023-05-15T10:24:53.773Z,3.42
2023-05-15T10:27:20.888Z,2.38
2023-05-15T10:29:48.037Z,2.40
2023-05-15T10:32:15.238Z,3.00
2023-05-15T10:34:42.319Z,3.30
2023-05-15T10:37:09.478Z,3.00
2023-05-15T10:39:36.551Z,3.40
2023-05-15T10:42:03.942Z,3.60
2023-05-15T10:44:31.051Z,3.40
2023-05-15T10:46:58.211Z,3.30
2023-05-15T10:49:25.792Z,3.63
2023-05-15T10:51:53.390Z,2.90
2023-05-15T10:54:20.463Z,3.80
2023-05-15T10:56:48.126Z,5.28
2023-05-15T10:59:16.521Z,3.30
2023-05-15T11:01:43.658Z,3.10
2023-05-15T11:04:11.763Z,3.25
2023-05-15T11:06:39.568Z,3.53
2023-05-15T11:09:27.382Z,4.05
2023-05-15T11:11:56.988Z,4.68
2023-05-15T11:14:33.762Z,3.10
2023-05-15T11:17:01.586Z,2.80
2023-05-15T11:19:35.252Z,3.10
2023-05-15T11:22:06.119Z,2.85
2023-05-15T11:24:37.637Z,3.60
2023-05-15T11:27:04.958Z,4.82
2023-05-15T11:29:32.115Z,4.00
2023-05-15T11:31:59.673Z,5.22
2023-05-15T11:34:44.875Z,3.80
2023-05-15T11:37:17.891Z,3.40
2023-05-15T11:39:45.025Z,2.97
2023-05-15T11:42:12.612Z,2.92
2023-05-15T11:44:39.710Z,3.08
2023-05-15T11:47:10.370Z,2.90
2023-05-15T11:49:38.234Z,2.55
2023-05-15T11:52:06.340Z,2.47
2023-05-15T11:54:33.456Z,3.50
2023-05-15T11:57:01.962Z,2.75
2023-05-15T11:59:29.092Z,3.13
2023-05-15T12:01:56.215Z,4.15
2023-05-15T12:04:23.447Z,3.53
2023-05-15T12:06:50.793Z,2.70
2023-05-15T12:09:19.494Z,2.92
2023-05-15T12:11:52.811Z,2.22
2023-05-15T12:14:27.172Z,1.77
2023-05-15T12:16:54.435Z,2.17
2023-05-15T12:19:28.148Z,2.20
2023-05-15T12:21:55.436Z,2.40
2023-05-15T12:24:23.496Z,2.60
2023-05-15T12:26:50.648Z,1.85
2023-05-15T12:29:17.772Z,2.00
2023-05-15T12:31:44.900Z,2.05
2023-05-15T12:34:12.105Z,1.77
2023-05-15T12:36:41.570Z,2.00
2023-05-15T12:39:09.085Z,1.60
2023-05-15T12:41:37.908Z,1.70
2023-05-15T12:44:05.618Z,2.33
2023-05-15T12:46:32.928Z,6.13
2023-05-15T12:49:00.133Z,3.08
2023-05-15T12:51:27.427Z,2.10
2023-05-15T12:53:54.577Z,1.40
2023-05-15T12:56:21.688Z,1.60
2023-05-15T12:58:48.946Z,1.33
2023-05-15T13:01:16.687Z,1.10
2023-05-15T13:03:44.511Z,1.25
2023-05-15T13:06:11.758Z,1.13
2023-05-15T13:08:42.004Z,1.10
2023-05-15T13:11:15.532Z,1.40
2023-05-15T13:13:51.666Z,1.40
2023-05-15T13:16:25.485Z,1.58
2023-05-15T13:18:52.917Z,1.40
2023-05-15T13:21:20.022Z,1.48
2023-05-15T13:23:47.190Z,1.50
2023-05-15T13:26:14.288Z,1.20
2023-05-15T13:28:41.662Z,1.08
2023-05-15T13:31:08.854Z,1.20
2023-05-15T13:33:36.013Z,1.10
2023-05-15T13:36:03.136Z,1.08
2023-05-15T13:38:30.551Z,1.10
2023-05-15T13:40:57.641Z,1.50
2023-05-15T13:43:26.537Z,0.85
2023-05-15T13:45:53.945Z,1.75
2023-05-15T13:48:21.055Z,1.52
2023-05-15T13:50:48.165Z,1.15
2023-05-15T13:53:16.961Z,1.00
2023-05-15T13:55:47.001Z,0.90
2023-05-15T13:58:14.170Z,1.10
2023-05-15T14:00:42.680Z,1.00
2023-05-15T14:03:11.190Z,0.90
2023-05-15T14:05:39.737Z,0.80
2023-05-15T14:08:06.881Z,1.10
2023-05-15T14:10:33.972Z,1.60
2023-05-15T14:13:01.182Z,46.92
2023-05-15T14:15:28.441Z,1.17
2023-05-15T14:17:55.635Z,1.05
2023-05-15T14:20:22.759Z,1.10
2023-05-15T14:22:49.927Z,1.60
2023-05-15T14:25:17.023Z,1.52
2023-05-15T14:27:44.157Z,1.63
2023-05-15T14:30:11.506Z,4.20
2023-05-15T14:32:38.768Z,3.88
2023-05-15T14:35:06.050Z,2.40
2023-05-15T14:37:33.167Z,12.23
2023-05-15T14:40:00.336Z,7.18
2023-05-15T14:42:27.449Z,2.70
2023-05-15T14:44:54.665Z,3.42
2023-05-15T14:47:21.805Z,4.45
2023-05-15T14:49:48.976Z,2.55
2023-05-15T14:52:16.120Z,1.30
2023-05-15T14:54:44.637Z,1.48
2023-05-15T14:57:13.287Z,1.40
2023-05-15T14:59:40.416Z,1.83
2023-05-15T15:02:07.562Z,1.90
2023-05-15T15:04:34.691Z,1.48
2023-05-15T15:07:04.608Z,3.47
2023-05-15T15:09:31.738Z,7.30
2023-05-15T15:11:58.844Z,3.00
2023-05-15T15:14:26.188Z,5.85
2023-05-15T15:16:53.334Z,1.90
2023-05-15T15:19:20.741Z,3.15
2023-05-15T15:21:48.088Z,1.70
2023-05-15T15:24:15.395Z,4.00
2023-05-15T15:26:42.573Z,6.05
2023-05-15T15:29:09.701Z,2.10
2023-05-15T15:31:36.814Z,2.72
2023-05-15T15:34:05.675Z,1.88
2023-05-15T15:36:33.172Z,1.65
2023-05-15T15:39:00.328Z,3.15
2023-05-15T15:41:27.389Z,3.50
2023-05-15T15:43:54.587Z,2.10
2023-05-15T15:46:21.817Z,4.65
2023-05-15T15:48:49.174Z,2.00
2023-05-15T15:51:16.300Z,2.38
2023-05-15T15:53:43.434Z,2.08
2023-05-15T15:56:10.630Z,1.50
2023-05-15T15:58:37.727Z,1.50
2023-05-15T16:01:04.922Z,2.50
2023-05-15T16:03:32.132Z,2.50
2023-05-15T16:06:00.325Z,1.40
2023-05-15T16:08:27.737Z,1.60
2023-05-15T16:10:55.089Z,2.20
2023-05-15T16:13:22.245Z,5.85
2023-05-15T16:15:49.350Z,7.82
2023-05-15T16:18:16.690Z,5.13
2023-05-15T16:20:43.825Z,4.38
2023-05-15T16:23:14.208Z,8.07
2023-05-15T16:25:41.383Z,4.57
2023-05-15T16:28:10.017Z,1.40
2023-05-15T16:30:47.935Z,2.50
2023-05-15T16:33:17.468Z,2.13
2023-05-15T16:35:44.750Z,1.45
2023-05-15T16:38:11.995Z,1.60
2023-05-15T16:40:39.134Z,2.72
2023-05-15T16:43:06.338Z,3.50
2023-05-15T16:45:33.469Z,2.10
2023-05-15T16:48:00.670Z,4.40
2023-05-15T16:50:27.908Z,2.25
2023-05-15T16:52:55.147Z,6.68
2023-05-15T16:55:22.392Z,5.53
2023-05-15T16:57:49.509Z,3.63
2023-05-15T17:00:16.822Z,3.70
2023-05-15T17:02:44.341Z,3.20
2023-05-15T17:05:11.854Z,3.10
2023-05-15T17:07:39.114Z,3.05
2023-05-15T17:10:06.941Z,2.70
2023-05-15T17:12:34.147Z,2.50
2023-05-15T17:15:01.303Z,2.70
2023-05-15T17:17:28.555Z,1.30
2023-05-15T17:19:55.989Z,2.00
2023-05-15T17:22:23.075Z,1.45
2023-05-15T17:24:51.778Z,1.58
2023-05-15T17:27:19.600Z,1.00
2023-05-15T17:29:46.764Z,2.58
2023-05-15T17:32:14.308Z,2.55
2023-05-15T17:34:41.562Z,2.30
2023-05-15T17:37:09.048Z,1.80
2023-05-15T17:39:36.232Z,1.40
2023-05-15T17:42:03.468Z,1.30
2023-05-15T17:44:31.148Z,1.30
2023-05-15T17:46:58.712Z,1.40
2023-05-15T17:49:26.322Z,1.10
2023-05-15T17:51:53.827Z,1.10
2023-05-15T17:54:20.979Z,1.30
2023-05-15T17:56:48.338Z,1.70
2023-05-15T17:59:15.451Z,4.63
2023-05-15T18:01:42.718Z,4.45
2023-05-15T18:04:10.081Z,9.10
2023-05-15T18:06:37.434Z,5.60
2023-05-15T18:09:05.103Z,4.18
2023-05-15T18:11:32.363Z,4.88
2023-05-15T18:13:59.580Z,3.60
2023-05-15T18:16:26.984Z,3.92
2023-05-15T18:18:54.211Z,1.90
2023-05-15T18:21:21.336Z,3.65
2023-05-15T18:23:48.522Z,16.25
2023-05-15T18:26:15.713Z,7.20
2023-05-15T18:28:42.782Z,15.07
2023-05-15T18:31:10.192Z,17.95
2023-05-15T18:33:37.390Z,22.73
2023-05-15T18:36:07.267Z,15.88
2023-05-15T18:38:34.717Z,6.57
2023-05-15T18:41:01.783Z,6.60
2023-05-15T18:43:28.880Z,4.95
2023-05-15T18:45:56.122Z,5.65
2023-05-15T18:48:23.256Z,5.00
2023-05-15T18:50:50.364Z,4.90
2023-05-15T18:53:17.516Z,3.50
2023-05-15T18:55:44.600Z,3.38
2023-05-15T18:58:11.662Z,2.95
2023-05-15T19:00:57.564Z,3.08
2023-05-15T19:03:25.764Z,5.10
2023-05-15T19:05:53.122Z,7.57
2023-05-15T19:08:20.502Z,13.25
2023-05-15T19:10:50.953Z,13.70
2023-05-15T19:13:18.916Z,12.90
2023-05-15T19:15:52.434Z,14.85
2023-05-15T19:18:19.661Z,9.73
2023-05-15T19:20:50.449Z,9.18
2023-05-15T19:23:17.655Z,5.18
2023-05-15T19:25:45.107Z,5.70
2023-05-15T19:28:12.980Z,5.10
2023-05-15T19:30:40.139Z,4.80
2023-05-15T19:33:07.283Z,5.30
2023-05-15T19:35:36.675Z,10.13
2023-05-15T19:38:04.613Z,21.73
2023-05-15T19:40:31.721Z,25.85
2023-05-15T19:42:58.814Z,23.33
2023-05-15T19:45:25.990Z,21.75
2023-05-15T19:47:53.261Z,21.23
2023-05-15T19:50:20.389Z,19.98
2023-05-15T19:52:47.601Z,19.27
2023-05-15T19:55:14.911Z,15.85
2023-05-15T19:57:42.622Z,14.88
2023-05-15T20:00:10.624Z,26.90
2023-05-15T20:02:37.901Z,16.65
2023-05-15T20:05:05.217Z,17.35
2023-05-15T20:07:32.369Z,17.60
2023-05-15T20:09:59.478Z,16.80
2023-05-15T20:12:26.585Z,23.90
2023-05-15T20:14:53.702Z,24.02
2023-05-15T20:17:20.797Z,36.00
2023-05-15T20:19:49.409Z,19.83
2023-05-15T20:22:17.604Z,19.20
2023-05-15T20:24:45.845Z,18.17
2023-05-15T20:27:12.955Z,19.38
2023-05-15T20:29:40.112Z,19.20
2023-05-15T20:32:07.386Z,20.30
2023-05-15T20:34:36.719Z,17.42
2023-05-15T20:37:04.039Z,20.33
2023-05-15T20:39:31.449Z,21.38
2023-05-15T20:41:58.619Z,18.92
2023-05-15T20:44:25.809Z,21.95
2023-05-15T20:46:52.939Z,25.48
2023-05-15T20:49:21.214Z,22.20
2023-05-15T20:51:48.849Z,17.05
2023-05-15T20:54:16.191Z,17.20
2023-05-15T20:56:43.345Z,17.17
2023-05-15T20:59:10.725Z,15.15
2023-05-15T21:01:38.079Z,17.35
2023-05-15T21:04:05.438Z,13.88
2023-05-15T21:06:32.653Z,11.80
2023-05-15T21:08:59.753Z,12.63
2023-05-15T21:11:27.030Z,14.07
2023-05-15T21:13:54.147Z,15.27
2023-05-15T21:16:21.287Z,18.95
2023-05-15T21:18:48.951Z,11.70
2023-05-15T21:21:16.583Z,17.95
2023-05-15T21:23:43.858Z,19.60
2023-05-15T21:26:11.108Z,16.75
2023-05-15T21:28:38.200Z,17.20
2023-05-15T21:31:10.677Z,15.82
2023-05-15T21:33:37.937Z,14.07
2023-05-15T21:36:05.310Z,12.40
2023-05-15T21:38:32.739Z,8.00
2023-05-15T21:40:59.912Z,7.88
2023-05-15T21:43:27.042Z,9.85
2023-05-15T21:45:57.054Z,8.07
2023-05-15T21:48:24.226Z,9.50
2023-05-15T21:50:52.402Z,10.85
2023-05-15T21:53:19.540Z,10.95
2023-05-15T21:55:48.267Z,4.88
2023-05-15T21:58:15.819Z,4.75
2023-05-15T22:00:42.913Z,4.18
2023-05-15T22:03:10.125Z,4.45
2023-05-15T22:05:37.336Z,4.03
2023-05-15T22:08:04.519Z,4.80
2023-05-15T22:10:31.586Z,4.45
2023-05-15T22:12:59.138Z,4.40
2023-05-15T22:15:26.288Z,5.30
2023-05-15T22:17:54.006Z,4.82
2023-05-15T22:20:21.386Z,5.57
2023-05-15T22:22:48.825Z,5.13
2023-05-15T22:25:16.242Z,4.90
2023-05-15T22:27:43.362Z,5.88
2023-05-15T22:30:10.602Z,7.88
2023-05-15T22:32:37.762Z,6.85
2023-05-15T22:35:05.269Z,6.32
2023-05-15T22:37:32.369Z,5.30
2023-05-15T22:39:59.793Z,4.35
2023-05-15T22:42:28.075Z,4.45
2023-05-15T22:44:58.103Z,5.45
2023-05-15T22:47:25.398Z,7.00
2023-05-15T22:49:52.529Z,6.05
2023-05-15T22:52:19.789Z,7.43
2023-05-15T22:54:46.881Z,6.38
2023-05-15T22:57:14.014Z,6.20
2023-05-15T22:59:41.532Z,6.85
2023-05-15T23:02:08.591Z,6.30
2023-05-15T23:04:36.256Z,5.93
2023-05-15T23:07:03.329Z,7.53
2023-05-15T23:09:30.508Z,9.35
2023-05-15T23:11:57.688Z,7.80
2023-05-15T23:14:25.423Z,7.25
2023-05-15T23:16:52.558Z,7.32
2023-05-15T23:19:19.806Z,5.72
2023-05-15T23:21:47.188Z,6.20
2023-05-15T23:24:14.289Z,6.10
2023-05-15T23:26:41.451Z,5.97
2023-05-15T23:29:08.584Z,6.63
2023-05-15T23:31:35.782Z,6.80
2023-05-15T23:34:02.956Z,6.65
2023-05-15T23:36:30.010Z,7.43
2023-05-15T23:38:57.072Z,7.72
2023-05-15T23:41:24.181Z,11.10
2023-05-15T23:43:51.446Z,13.68
2023-05-15T23:46:18.641Z,12.80
2023-05-15T23:48:45.846Z,10.25
2023-05-15T23:51:12.906Z,8.73
2023-05-15T23:53:40.005Z,7.97
2023-05-15T23:56:08.324Z,8.80
2023-05-15T23:58:35.426Z,8.23
